sensor_id;sensor_type;location;lat;lon;timestamp;P1;durP1;ratioP1;P2;durP2;ratioP2
76051;SDS011;64751;48.708;9.710;2023-04-25T14:32:44;0.00;;;0.00;;
76051;SDS011;64751;48.708;9.710;2023-04-25T14:35:12;0.10;;;0.10;;
76051;SDS011;64751;48.708;9.710;2023-04-25T14:37:40;0.10;;;0.10;;
76051;SDS011;64751;48.708;9.710;2023-04-25T14:40:08;0.10;;;0.10;;
76051;SDS011;64751;48.708;9.710;2023-04-25T14:42:38;0.10;;;0.10;;
76051;SDS011;64751;48.708;9.710;2023-04-25T14:45:06;0.00;;;0.00;;
76051;SDS011;64751;48.708;9.710;2023-04-25T14:47:35;0.20;;;0.20;;
76051;SDS011;64751;48.708;9.710;2023-04-25T14:50:05;0.03;;;0.03;;
76051;SDS011;64751;48.708;9.710;2023-04-25T14:52:34;0.13;;;0.13;;
76051;SDS011;64751;48.708;9.710;2023-04-25T14:55:02;0.00;;;0.00;;
76051;SDS011;64751;48.708;9.710;2023-04-25T14:57:31;0.10;;;0.10;;
76051;SDS011;64751;48.708;9.710;2023-04-25T14:59:59;0.00;;;0.00;;
76051;SDS011;64751;48.708;9.710;2023-04-25T15:02:27;0.20;;;0.20;;
76051;SDS011;64751;48.708;9.710;2023-04-25T15:04:55;0.00;;;0.00;;
76051;SDS011;64751;48.708;9.710;2023-04-25T15:07:24;0.10;;;0.10;;
76051;SDS011;64751;48.708;9.710;2023-04-25T15:09:52;0.10;;;0.10;;
76051;SDS011;64751;48.708;9.710;2023-04-25T15:12:21;0.10;;;0.10;;
76051;SDS011;64751;48.708;9.710;2023-04-25T15:14:53;0.10;;;0.00;;
76051;SDS011;64751;48.708;9.710;2023-04-25T15:17:21;0.00;;;0.00;;
76051;SDS011;64751;48.708;9.710;2023-04-25T15:19:49;0.00;;;0.00;;
76051;SDS011;64751;48.708;9.710;2023-04-25T15:22:17;0.10;;;0.10;;
76051;SDS011;64751;48.708;9.710;2023-04-25T15:24:46;0.10;;;0.10;;
76051;SDS011;64751;48.708;9.710;2023-04-25T15:27:14;0.10;;;0.10;;
76051;SDS011;64751;48.708;9.710;2023-04-25T15:29:43;0.00;;;0.00;;
76051;SDS011;64751;48.708;9.710;2023-04-25T15:32:10;0.00;;;0.00;;
76051;SDS011;64751;48.708;9.710;2023-04-25T15:34:38;0.10;;;0.10;;
76051;SDS011;64751;48.708;9.710;2023-04-25T15:37:06;0.05;;;0.05;;
76051;SDS011;64751;48.708;9.710;2023-04-25T15:39:33;0.00;;;0.00;;
76051;SDS011;64751;48.708;9.710;2023-04-25T15:42:02;0.10;;;0.10;;
76051;SDS011;64751;48.708;9.710;2023-04-25T15:44:30;0.10;;;0.10;;
76051;SDS011;64751;48.708;9.710;2023-04-25T15:46:58;0.10;;;0.10;;
76051;SDS011;64751;48.708;9.710;2023-04-25T15:49:26;0.00;;;0.00;;
76051;SDS011;64751;48.708;9.710;2023-04-25T15:51:53;0.00;;;0.00;;
76051;SDS011;64751;48.708;9.710;2023-04-25T15:54:22;0.00;;;0.00;;
76051;SDS011;64751;48.708;9.710;2023-04-25T15:56:50;0.00;;;0.00;;
76051;SDS011;64751;48.708;9.710;2023-04-25T15:59:19;0.00;;;0.00;;
76051;SDS011;64751;48.708;9.710;2023-04-25T16:01:47;0.05;;;0.05;;
76051;SDS011;64751;48.708;9.710;2023-04-25T16:04:14;0.08;;;0.08;;
76051;SDS011;64751;48.708;9.710;2023-04-25T16:06:42;0.10;;;0.10;;
76051;SDS011;64751;48.708;9.710;2023-04-25T16:09:10;0.10;;;0.10;;
76051;SDS011;64751;48.708;9.710;2023-04-25T16:11:38;0.10;;;0.10;;
76051;SDS011;64751;48.708;9.710;2023-04-25T16:14:05;0.00;;;0.00;;
76051;SDS011;64751;48.708;9.710;2023-04-25T16:16:35;0.13;;;0.13;;
76051;SDS011;64751;48.708;9.710;2023-04-25T16:19:02;0.10;;;0.10;;
76051;SDS011;64751;48.708;9.710;2023-04-25T16:21:30;0.10;;;0.10;;
76051;SDS011;64751;48.708;9.710;2023-04-25T16:23:58;0.00;;;0.00;;
76051;SDS011;64751;48.708;9.710;2023-04-25T16:26:25;0.10;;;0.10;;
76051;SDS011;64751;48.708;9.710;2023-04-25T16:28:53;0.10;;;0.10;;
76051;SDS011;64751;48.708;9.710;2023-04-25T16:31:21;0.20;;;0.20;;
76051;SDS011;64751;48.708;9.710;2023-04-25T16:33:50;0.10;;;0.10;;
76051;SDS011;64751;48.708;9.710;2023-04-25T16:36:17;0.32;;;0.32;;
76051;SDS011;64751;48.708;9.710;2023-04-25T16:38:45;0.10;;;0.10;;
76051;SDS011;64751;48.708;9.710;2023-04-25T16:41:13;0.10;;;0.10;;
76051;SDS011;64751;48.708;9.710;2023-04-25T16:43:41;0.10;;;0.10;;
76051;SDS011;64751;48.708;9.710;2023-04-25T16:46:09;0.10;;;0.10;;
76051;SDS011;64751;48.708;9.710;2023-04-25T16:48:37;0.10;;;0.10;;
76051;SDS011;64751;48.708;9.710;2023-04-25T16:51:06;0.00;;;0.00;;
76051;SDS011;64751;48.708;9.710;2023-04-25T16:53:33;0.03;;;0.03;;
76051;SDS011;64751;48.708;9.710;2023-04-25T16:56:01;0.08;;;0.08;;
76051;SDS011;64751;48.708;9.710;2023-04-25T16:58:29;0.10;;;0.10;;
76051;SDS011;64751;48.708;9.710;2023-04-25T17:00:56;0.10;;;0.10;;
76051;SDS011;64751;48.708;9.710;2023-04-25T17:03:24;0.00;;;0.00;;
76051;SDS011;64751;48.708;9.710;2023-04-25T17:05:53;0.00;;;0.00;;
76051;SDS011;64751;48.708;9.710;2023-04-25T17:08:24;0.10;;;0.10;;
76051;SDS011;64751;48.708;9.710;2023-04-25T17:10:51;0.10;;;0.10;;
76051;SDS011;64751;48.708;9.710;2023-04-25T17:13:19;0.03;;;0.03;;
76051;SDS011;64751;48.708;9.710;2023-04-25T17:15:47;0.10;;;0.10;;
76051;SDS011;64751;48.708;9.710;2023-04-25T17:18:15;0.03;;;0.03;;
76051;SDS011;64751;48.708;9.710;2023-04-25T17:20:43;0.17;;;0.17;;
76051;SDS011;64751;48.708;9.710;2023-04-25T17:23:11;0.10;;;0.10;;
76051;SDS011;64751;48.708;9.710;2023-04-25T17:25:40;0.00;;;0.00;;
76051;SDS011;64751;48.708;9.710;2023-04-25T17:28:07;0.00;;;0.00;;
76051;SDS011;64751;48.708;9.710;2023-04-25T17:30:35;0.10;;;0.10;;
76051;SDS011;64751;48.708;9.710;2023-04-25T17:33:03;0.05;;;0.05;;
76051;SDS011;64751;48.708;9.710;2023-04-25T17:35:31;0.10;;;0.10;;
76051;SDS011;64751;48.708;9.710;2023-04-25T17:38:00;0.10;;;0.10;;
76051;SDS011;64751;48.708;9.710;2023-04-25T17:40:27;0.10;;;0.10;;
76051;SDS011;64751;48.708;9.710;2023-04-25T17:42:56;0.05;;;0.05;;
76051;SDS011;64751;48.708;9.710;2023-04-25T17:45:24;0.00;;;0.00;;
76051;SDS011;64751;48.708;9.710;2023-04-25T17:47:52;0.00;;;0.00;;
76051;SDS011;64751;48.708;9.710;2023-04-25T17:50:19;0.00;;;0.00;;
76051;SDS011;64751;48.708;9.710;2023-04-25T17:52:47;0.10;;;0.10;;
76051;SDS011;64751;48.708;9.710;2023-04-25T17:55:15;0.00;;;0.00;;
76051;SDS011;64751;48.708;9.710;2023-04-25T17:57:43;0.00;;;0.00;;
76051;SDS011;64751;48.708;9.710;2023-04-25T18:00:13;0.10;;;0.10;;
76051;SDS011;64751;48.708;9.710;2023-04-25T18:02:42;0.00;;;0.00;;
76051;SDS011;64751;48.708;9.710;2023-04-25T18:05:10;0.08;;;0.08;;
76051;SDS011;64751;48.708;9.710;2023-04-25T18:07:38;0.05;;;0.05;;
76051;SDS011;64751;48.708;9.710;2023-04-25T18:10:07;0.20;;;0.20;;
76051;SDS011;64751;48.708;9.710;2023-04-25T18:12:36;0.10;;;0.10;;
76051;SDS011;64751;48.708;9.710;2023-04-25T18:15:04;0.10;;;0.10;;
76051;SDS011;64751;48.708;9.710;2023-04-25T18:17:34;0.05;;;0.05;;
76051;SDS011;64751;48.708;9.710;2023-04-25T18:20:06;0.10;;;0.10;;
76051;SDS011;64751;48.708;9.710;2023-04-25T18:22:36;0.10;;;0.10;;
76051;SDS011;64751;48.708;9.710;2023-04-25T18:25:04;0.00;;;0.00;;
76051;SDS011;64751;48.708;9.710;2023-04-25T18:27:34;0.00;;;0.00;;
76051;SDS011;64751;48.708;9.710;2023-04-25T18:30:03;0.00;;;0.00;;
76051;SDS011;64751;48.708;9.710;2023-04-25T18:32:32;0.22;;;0.20;;
76051;SDS011;64751;48.708;9.710;2023-04-25T18:35:01;127.90;;;68.55;;
76051;SDS011;64751;48.708;9.710;2023-04-25T18:37:29;75.85;;;40.30;;
76051;SDS011;64751;48.708;9.710;2023-04-25T18:39:56;135.15;;;68.90;;
76051;SDS011;64751;48.708;9.710;2023-04-25T18:42:24;149.68;;;76.82;;
76051;SDS011;64751;48.708;9.710;2023-04-25T18:44:52;134.77;;;71.55;;
76051;SDS011;64751;48.708;9.710;2023-04-25T18:47:20;144.10;;;80.93;;
76051;SDS011;64751;48.708;9.710;2023-04-25T18:49:47;157.13;;;88.63;;
76051;SDS011;64751;48.708;9.710;2023-04-25T18:52:17;75.18;;;49.70;;
76051;SDS011;64751;48.708;9.710;2023-04-25T18:54:44;0.40;;;0.40;;
76051;SDS011;64751;48.708;9.710;2023-04-25T18:57:12;3.00;;;1.95;;
76051;SDS011;64751;48.708;9.710;2023-04-25T18:59:41;4.05;;;2.30;;
76051;SDS011;64751;48.708;9.710;2023-04-25T19:02:11;0.30;;;0.30;;
76051;SDS011;64751;48.708;9.710;2023-04-25T19:04:41;0.40;;;0.40;;
76051;SDS011;64751;48.708;9.710;2023-04-25T19:07:10;0.25;;;0.25;;
76051;SDS011;64751;48.708;9.710;2023-04-25T19:09:39;0.40;;;0.40;;
76051;SDS011;64751;48.708;9.710;2023-04-25T19:12:06;0.20;;;0.20;;
76051;SDS011;64751;48.708;9.710;2023-04-25T19:14:34;0.20;;;0.20;;
76051;SDS011;64751;48.708;9.710;2023-04-25T19:17:02;0.32;;;0.22;;
76051;SDS011;64751;48.708;9.710;2023-04-25T19:19:30;0.10;;;0.10;;
76051;SDS011;64751;48.708;9.710;2023-04-25T19:21:57;0.10;;;0.10;;
76051;SDS011;64751;48.708;9.710;2023-04-25T19:24:25;0.17;;;0.10;;
76051;SDS011;64751;48.708;9.710;2023-04-25T19:26:54;0.00;;;0.00;;
76051;SDS011;64751;48.708;9.710;2023-04-25T19:29:22;0.25;;;0.20;;
76051;SDS011;64751;48.708;9.710;2023-04-25T19:31:50;0.10;;;0.10;;
76051;SDS011;64751;48.708;9.710;2023-04-25T19:34:18;0.10;;;0.10;;
76051;SDS011;64751;48.708;9.710;2023-04-25T19:36:45;0.20;;;0.20;;
76051;SDS011;64751;48.708;9.710;2023-04-25T19:39:13;0.10;;;0.10;;
76051;SDS011;64751;48.708;9.710;2023-04-25T19:41:41;0.20;;;0.20;;
76051;SDS011;64751;48.708;9.710;2023-04-25T19:44:10;0.10;;;0.10;;
76051;SDS011;64751;48.708;9.710;2023-04-25T19:46:38;0.10;;;0.10;;
76051;SDS011;64751;48.708;9.710;2023-04-25T19:49:07;0.10;;;0.10;;
76051;SDS011;64751;48.708;9.710;2023-04-25T19:51:35;0.10;;;0.10;;
76051;SDS011;64751;48.708;9.710;2023-04-25T19:54:03;0.10;;;0.10;;
76051;SDS011;64751;48.708;9.710;2023-04-25T19:56:31;0.13;;;0.13;;
76051;SDS011;64751;48.708;9.710;2023-04-25T19:58:58;0.20;;;0.20;;
76051;SDS011;64751;48.708;9.710;2023-04-25T20:01:27;0.20;;;0.20;;
76051;SDS011;64751;48.708;9.710;2023-04-25T20:03:55;0.10;;;0.10;;
76051;SDS011;64751;48.708;9.710;2023-04-25T20:06:23;0.00;;;0.00;;
76051;SDS011;64751;48.708;9.710;2023-04-25T20:08:51;0.10;;;0.10;;
76051;SDS011;64751;48.708;9.710;2023-04-25T20:11:20;0.03;;;0.03;;
76051;SDS011;64751;48.708;9.710;2023-04-25T20:13:47;0.20;;;0.20;;
76051;SDS011;64751;48.708;9.710;2023-04-25T20:16:15;0.10;;;0.10;;
76051;SDS011;64751;48.708;9.710;2023-04-25T20:18:46;0.10;;;0.10;;
76051;SDS011;64751;48.708;9.710;2023-04-25T20:21:15;0.00;;;0.00;;
76051;SDS011;64751;48.708;9.710;2023-04-25T20:23:43;0.10;;;0.10;;
76051;SDS011;64751;48.708;9.710;2023-04-25T20:26:11;0.10;;;0.10;;
76051;SDS011;64751;48.708;9.710;2023-04-25T20:28:39;0.08;;;0.08;;
76051;SDS011;64751;48.708;9.710;2023-04-25T20:31:07;0.08;;;0.08;;
76051;SDS011;64751;48.708;9.710;2023-04-25T20:33:35;0.08;;;0.08;;
76051;SDS011;64751;48.708;9.710;2023-04-25T20:36:05;0.20;;;0.20;;
76051;SDS011;64751;48.708;9.710;2023-04-25T20:38:33;0.10;;;0.10;;
76051;SDS011;64751;48.708;9.710;2023-04-25T20:41:00;0.10;;;0.10;;
76051;SDS011;64751;48.708;9.710;2023-04-25T20:43:28;0.10;;;0.10;;
76051;SDS011;64751;48.708;9.710;2023-04-25T20:45:56;0.08;;;0.08;;
76051;SDS011;64751;48.708;9.710;2023-04-25T20:48:25;0.10;;;0.10;;
76051;SDS011;64751;48.708;9.710;2023-04-25T20:50:52;0.00;;;0.00;;
76051;SDS011;64751;48.708;9.710;2023-04-25T20:53:21;0.10;;;0.10;;
76051;SDS011;64751;48.708;9.710;2023-04-25T20:55:49;0.13;;;0.13;;
76051;SDS011;64751;48.708;9.710;2023-04-25T20:58:17;0.10;;;0.10;;
76051;SDS011;64751;48.708;9.710;2023-04-25T21:00:45;0.10;;;0.10;;
76051;SDS011;64751;48.708;9.710;2023-04-25T21:03:14;0.15;;;0.15;;
76051;SDS011;64751;48.708;9.710;2023-04-25T21:05:41;0.10;;;0.10;;
76051;SDS011;64751;48.708;9.710;2023-04-25T21:08:09;0.10;;;0.10;;
76051;SDS011;64751;48.708;9.710;2023-04-25T21:10:38;0.05;;;0.05;;
76051;SDS011;64751;48.708;9.710;2023-04-25T21:13:07;0.10;;;0.10;;
76051;SDS011;64751;48.708;9.710;2023-04-25T21:15:35;0.10;;;0.10;;
76051;SDS011;64751;48.708;9.710;2023-04-25T21:18:02;0.10;;;0.10;;
76051;SDS011;64751;48.708;9.710;2023-04-25T21:20:31;0.13;;;0.13;;
76051;SDS011;64751;48.708;9.710;2023-04-25T21:22:59;0.00;;;0.00;;
76051;SDS011;64751;48.708;9.710;2023-04-25T21:25:27;0.10;;;0.10;;
76051;SDS011;64751;48.708;9.710;2023-04-25T21:27:57;0.10;;;0.10;;
76051;SDS011;64751;48.708;9.710;2023-04-25T21:30:27;0.10;;;0.10;;
76051;SDS011;64751;48.708;9.710;2023-04-25T21:32:55;0.10;;;0.10;;
76051;SDS011;64751;48.708;9.710;2023-04-25T21:35:23;0.00;;;0.00;;
76051;SDS011;64751;48.708;9.710;2023-04-25T21:37:50;0.20;;;0.20;;
76051;SDS011;64751;48.708;9.710;2023-04-25T21:40:18;0.00;;;0.00;;
76051;SDS011;64751;48.708;9.710;2023-04-25T21:42:46;0.00;;;0.00;;
76051;SDS011;64751;48.708;9.710;2023-04-25T21:45:19;0.00;;;0.00;;
76051;SDS011;64751;48.708;9.710;2023-04-25T21:47:47;0.10;;;0.10;;
76051;SDS011;64751;48.708;9.710;2023-04-25T21:50:15;0.10;;;0.10;;
76051;SDS011;64751;48.708;9.710;2023-04-25T21:52:43;0.00;;;0.00;;
76051;SDS011;64751;48.708;9.710;2023-04-25T21:55:12;0.10;;;0.10;;
76051;SDS011;64751;48.708;9.710;2023-04-25T21:57:39;0.17;;;0.15;;
76051;SDS011;64751;48.708;9.710;2023-04-25T22:00:07;0.00;;;0.00;;
